Time;durP1;ratioP1;P1;durP2;ratioP2;P2;SDS_P1;SDS_P2;PMS_P1;PMS_P2;Temp;Humidity;BMP_temperature;BMP_pressure;BME280_temperature;BME280_humidity;BME280_pressure;Samples;Min_cycle;Max_cycle;Signal;HPM_P1;HPM_P2
2022/03/29 00:01:36;;;;;;;;;;;15.30;56.70;;;;;;5049256;28;19959;-57
2022/03/29 00:04:01;;;;;;;;;;;15.30;57.30;;;;;;5049432;28;20308;-56
2022/03/29 00:06:27;;;;;;;;;;;15.30;57.20;;;;;;5049155;28;19913;-56
2022/03/29 00:08:52;;;;;;;;;;;15.20;57.30;;;;;;5049056;28;19928;-56
2022/03/29 00:11:18;;;;;;;;;;;15.20;57.40;;;;;;5052421;28;19920;-57
2022/03/29 00:13:44;;;;;;;;;;;15.20;57.40;;;;;;5048731;28;19913;-57
2022/03/29 00:16:10;;;;;;;;;;;15.20;57.80;;;;;;5048490;28;19913;-56
2022/03/29 00:18:35;;;;;;;;;;;15.10;58.00;;;;;;5048684;28;19919;-56
2022/03/29 00:21:01;;;;;;;;;;;15.10;57.90;;;;;;5049013;28;20000;-57
2022/03/29 00:23:27;;;;;;;;;;;15.20;57.80;;;;;;5050908;28;20367;-56
2022/03/29 00:25:52;;;;;;;;;;;15.20;57.70;;;;;;5049865;28;19915;-55
2022/03/29 00:28:18;;;;;;;;;;;15.10;57.90;;;;;;5048289;28;19947;-57
2022/03/29 00:30:43;;;;;;;;;;;15.20;57.70;;;;;;5048536;28;20415;-52
2022/03/29 00:33:09;;;;;;;;;;;15.20;57.70;;;;;;5048712;28;19913;-56
2022/03/29 00:35:34;;;;;;;;;;;15.20;58.40;;;;;;5050567;28;19913;-56
2022/03/29 00:38:00;;;;;;;;;;;15.10;58.00;;;;;;5048808;28;19908;-54
2022/03/29 00:40:26;;;;;;;;;;;15.10;57.80;;;;;;5048301;28;19917;-56
2022/03/29 00:42:52;;;;;;;;;;;15.10;58.10;;;;;;5048431;28;20015;-55
2022/03/29 00:45:17;;;;;;;;;;;15.10;58.40;;;;;;5048342;28;19991;-56
2022/03/29 00:47:43;;;;;;;;;;;15.10;58.40;;;;;;5049117;28;19975;-55
2022/03/29 00:50:09;;;;;;;;;;;15.10;58.60;;;;;;5050300;28;19913;-54
2022/03/29 00:52:36;;;;;;;;;;;15.10;58.60;;;;;;5047905;28;19917;-55
2022/03/29 00:55:02;;;;;;;;;;;15.10;59.20;;;;;;5048462;28;19916;-53
2022/03/29 00:57:28;;;;;;;;;;;15.10;58.40;;;;;;5047983;28;19913;-57
2022/03/29 00:59:54;;;;;;;;;;;15.10;58.60;;;;;;5047804;28;19913;-57
2022/03/29 01:02:19;;;;;;;;;;;15.10;58.50;;;;;;5033663;28;19931;-55
2022/03/29 01:04:45;;;;;;;;;;;15.00;58.60;;;;;;5049289;28;19954;-57
2022/03/29 01:07:10;;;;;;;;;;;15.00;58.80;;;;;;5047596;28;20020;-53
2022/03/29 01:09:36;;;;;;;;;;;15.00;59.20;;;;;;5047820;28;19932;-57
2022/03/29 01:12:02;;;;;;;;;;;15.00;59.10;;;;;;5048167;28;19913;-57
2022/03/29 01:14:28;;;;;;;;;;;15.00;59.30;;;;;;5049913;28;20423;-52
2022/03/29 01:19:37;;;;;;;;;;;15.00;59.30;;;;;;5047600;28;19955;-57
2022/03/29 01:22:09;;;;;;;;;;;14.90;59.40;;;;;;5047712;28;20003;-56
2022/03/29 01:24:35;;;;;;;;;;;14.90;59.40;;;;;;5047966;28;19913;-57
2022/03/29 01:27:03;;;;;;;;;;;14.90;59.60;;;;;;5047336;28;19913;-55
2022/03/29 01:29:29;;;;;;;;;;;14.90;59.30;;;;;;5050004;28;19928;-55
2022/03/29 01:31:56;;;;;;;;;;;14.90;59.50;;;;;;5048411;28;19921;-56
2022/03/29 01:34:22;;;;;;;;;;;14.80;59.30;;;;;;5046948;28;19917;-53
2022/03/29 01:36:47;;;;;;;;;;;14.80;59.20;;;;;;5047540;28;19913;-57
2022/03/29 01:39:13;;;;;;;;;;;14.90;60.10;;;;;;5047355;28;19917;-55
2022/03/29 01:41:39;;;;;;;;;;;14.80;59.90;;;;;;5048853;28;19924;-56
2022/03/29 01:44:08;;;;;;;;;;;14.80;60.20;;;;;;5049102;28;19908;-56
2022/03/29 01:46:33;;;;;;;;;;;14.70;59.50;;;;;;5047313;28;20388;-57
2022/03/29 01:48:59;;;;;;;;;;;14.70;59.30;;;;;;5046710;28;19928;-56
2022/03/29 01:51:25;;;;;;;;;;;14.70;59.30;;;;;;5047387;28;19913;-57
2022/03/29 01:53:54;;;;;;;;;;;14.70;59.90;;;;;;5046967;28;20003;-57
2022/03/29 01:56:20;;;;;;;;;;;14.70;59.70;;;;;;5050717;28;20505;-55
2022/03/29 01:58:45;;;;;;;;;;;14.70;59.60;;;;;;5048809;28;19962;-56
2022/03/29 02:01:11;;;;;;;;;;;14.70;59.50;;;;;;5047184;28;20300;-56
2022/03/29 02:03:36;;;;;;;;;;;14.60;59.30;;;;;;5046714;28;20441;-56
2022/03/29 02:06:02;;;;;;;;;;;14.70;59.00;;;;;;5046801;28;20420;-56
2022/03/29 02:08:27;;;;;;;;;;;14.60;59.00;;;;;;5049240;28;20254;-55
2022/03/29 02:10:53;;;;;;;;;;;14.60;58.80;;;;;;5048067;28;20407;-56
2022/03/29 02:13:19;;;;;;;;;;;14.60;58.90;;;;;;5047156;28;20333;-57
2022/03/29 02:15:45;;;;;;;;;;;14.60;58.90;;;;;;5046684;28;20293;-56
2022/03/29 02:18:10;;;;;;;;;;;14.60;58.80;;;;;;5046727;28;19974;-55
2022/03/29 02:20:36;;;;;;;;;;;14.60;58.90;;;;;;5049049;28;19909;-57
2022/03/29 02:23:08;;;;;;;;;;;14.50;58.50;;;;;;5049275;28;20281;-55
2022/03/29 02:25:35;;;;;;;;;;;14.50;58.20;;;;;;5047527;28;20380;-56
2022/03/29 02:28:00;;;;;;;;;;;14.50;58.00;;;;;;5046950;28;19943;-56
2022/03/29 02:30:26;;;;;;;;;;;14.50;58.30;;;;;;5047133;28;20004;-56
2022/03/29 02:32:52;;;;;;;;;;;14.50;58.60;;;;;;5047507;28;19923;-57
2022/03/29 02:35:18;;;;;;;;;;;14.50;58.40;;;;;;5032522;28;19908;-57
2022/03/29 02:37:43;;;;;;;;;;;14.50;58.20;;;;;;5047138;28;19923;-56
2022/03/29 02:40:10;;;;;;;;;;;14.50;57.80;;;;;;5047322;28;20341;-57
2022/03/29 02:42:42;;;;;;;;;;;14.50;57.90;;;;;;5047423;28;19938;-56
2022/03/29 02:45:11;;;;;;;;;;;14.50;57.80;;;;;;5047157;28;19920;-56
2022/03/29 02:47:36;;;;;;;;;;;14.40;57.50;;;;;;5049519;28;19944;-56
2022/03/29 02:50:02;;;;;;;;;;;14.40;57.60;;;;;;5048761;28;19948;-56
2022/03/29 02:52:29;;;;;;;;;;;14.40;57.70;;;;;;5047168;28;19920;-57
2022/03/29 02:54:54;;;;;;;;;;;14.40;58.30;;;;;;5031742;28;19917;-56
2022/03/29 02:57:20;;;;;;;;;;;14.40;57.10;;;;;;5047035;28;20293;-56
2022/03/29 02:59:46;;;;;;;;;;;14.40;57.10;;;;;;5047537;28;19913;-56
2022/03/29 03:02:11;;;;;;;;;;;14.40;57.80;;;;;;5050504;28;20576;-56
2022/03/29 03:04:37;;;;;;;;;;;14.40;57.40;;;;;;5046676;28;19943;-57
2022/03/29 03:07:02;;;;;;;;;;;14.40;57.10;;;;;;5050053;28;19913;-56
2022/03/29 03:09:28;;;;;;;;;;;14.40;57.10;;;;;;5050577;28;19986;-57
2022/03/29 03:11:53;;;;;;;;;;;14.40;56.90;;;;;;5050676;28;20405;-55
2022/03/29 03:14:19;;;;;;;;;;;14.30;57.20;;;;;;5054303;28;19967;-57
2022/03/29 03:16:44;;;;;;;;;;;14.40;56.50;;;;;;5050272;28;20400;-57
2022/03/29 03:19:10;;;;;;;;;;;14.30;56.50;;;;;;5050216;28;20003;-56
2022/03/29 03:21:35;;;;;;;;;;;14.40;56.20;;;;;;5050316;28;19916;-57
2022/03/29 03:24:01;;;;;;;;;;;14.40;55.90;;;;;;5050670;28;20439;-57
2022/03/29 03:26:26;;;;;;;;;;;14.40;56.00;;;;;;5053100;28;20000;-56
2022/03/29 03:28:52;;;;;;;;;;;14.40;55.90;;;;;;5050605;28;20510;-56
2022/03/29 03:31:17;;;;;;;;;;;14.30;56.70;;;;;;5049945;28;20304;-57
2022/03/29 03:33:43;;;;;;;;;;;14.30;55.90;;;;;;5050045;28;19921;-55
2022/03/29 03:36:08;;;;;;;;;;;14.40;56.40;;;;;;5033811;28;20354;-56
2022/03/29 03:38:34;;;;;;;;;;;14.40;55.60;;;;;;5052040;28;19916;-57
2022/03/29 03:40:59;;;;;;;;;;;14.40;55.60;;;;;;5051415;28;19992;-56
2022/03/29 03:43:25;;;;;;;;;;;14.40;55.50;;;;;;5049840;28;19917;-56
2022/03/29 03:45:50;;;;;;;;;;;14.30;55.30;;;;;;5049755;28;19920;-56
2022/03/29 03:48:16;;;;;;;;;;;14.30;55.40;;;;;;5034638;28;19921;-56
2022/03/29 03:50:41;;;;;;;;;;;14.30;55.60;;;;;;5051112;28;19924;-57
2022/03/29 03:53:07;;;;;;;;;;;14.40;55.60;;;;;;5052371;28;20361;-57
2022/03/29 03:55:32;;;;;;;;;;;14.30;55.50;;;;;;5051070;28;19920;-57
2022/03/29 03:57:58;;;;;;;;;;;14.30;55.20;;;;;;5049637;28;19959;-57
2022/03/29 04:00:24;;;;;;;;;;;14.30;55.30;;;;;;5049883;28;19913;-57
2022/03/29 04:02:50;;;;;;;;;;;14.30;55.40;;;;;;5049431;28;19987;-57
2022/03/29 04:05:16;;;;;;;;;;;14.30;55.90;;;;;;5053355;28;20011;-52
2022/03/29 04:07:42;;;;;;;;;;;14.30;56.20;;;;;;5048892;28;20011;-56
2022/03/29 04:10:08;;;;;;;;;;;14.30;56.40;;;;;;5049208;28;19975;-54
2022/03/29 04:12:34;;;;;;;;;;;14.30;56.70;;;;;;5049242;28;20349;-57
2022/03/29 04:14:59;;;;;;;;;;;14.30;57.20;;;;;;5049510;28;19917;-57
2022/03/29 04:17:25;;;;;;;;;;;14.30;57.20;;;;;;5051836;28;19916;-57
2022/03/29 04:19:50;;;;;;;;;;;14.30;57.30;;;;;;5049920;28;20423;-57
2022/03/29 04:22:18;;;;;;;;;;;14.30;57.30;;;;;;5048574;28;19912;-56
2022/03/29 04:24:47;;;;;;;;;;;14.30;57.00;;;;;;5049309;28;20672;-57
2022/03/29 04:27:13;;;;;;;;;;;14.30;57.90;;;;;;5049220;28;19912;-55
2022/03/29 04:29:39;;;;;;;;;;;14.20;57.50;;;;;;5050583;28;20002;-56
2022/03/29 04:32:07;;;;;;;;;;;14.30;57.30;;;;;;5050588;28;20392;-56
2022/03/29 04:34:34;;;;;;;;;;;14.20;57.60;;;;;;5049113;28;19948;-57
2022/03/29 04:36:59;;;;;;;;;;;14.20;57.20;;;;;;5048493;28;19913;-54
2022/03/29 04:39:26;;;;;;;;;;;14.30;57.20;;;;;;5049548;28;19913;-54
2022/03/29 04:41:51;;;;;;;;;;;14.20;56.80;;;;;;5048302;28;19943;-57
2022/03/29 04:44:17;;;;;;;;;;;14.20;57.40;;;;;;5052499;28;20365;-53
2022/03/29 04:46:42;;;;;;;;;;;14.20;56.90;;;;;;5048633;28;19913;-56
2022/03/29 04:49:08;;;;;;;;;;;14.10;56.70;;;;;;5049077;28;19920;-57
2022/03/29 04:51:34;;;;;;;;;;;14.10;57.00;;;;;;5048541;28;19912;-56
2022/03/29 04:54:01;;;;;;;;;;;14.10;57.30;;;;;;5048492;28;19924;-52
2022/03/29 04:56:26;;;;;;;;;;;14.00;57.20;;;;;;5050920;28;19951;-56
2022/03/29 04:58:52;;;;;;;;;;;14.10;57.80;;;;;;5050021;28;20396;-55
2022/03/29 05:01:18;;;;;;;;;;;14.10;57.50;;;;;;5048283;28;19909;-56
2022/03/29 05:03:43;;;;;;;;;;;14.00;57.40;;;;;;5048470;28;19967;-56
2022/03/29 05:06:08;;;;;;;;;;;14.00;57.50;;;;;;5048436;28;20048;-57
2022/03/29 05:08:34;;;;;;;;;;;14.00;57.50;;;;;;5050683;28;19921;-56
2022/03/29 05:11:00;;;;;;;;;;;14.00;57.40;;;;;;5049462;28;19917;-57
2022/03/29 05:13:26;;;;;;;;;;;14.10;57.80;;;;;;5047929;28;19931;-56
2022/03/29 05:15:52;;;;;;;;;;;14.00;57.80;;;;;;5048218;28;20436;-56
2022/03/29 05:18:17;;;;;;;;;;;14.00;58.40;;;;;;5030551;28;20343;-56
2022/03/29 05:20:43;;;;;;;;;;;14.00;57.90;;;;;;5049309;28;19921;-56
2022/03/29 05:23:08;;;;;;;;;;;14.00;57.70;;;;;;5049167;28;19913;-52
2022/03/29 05:25:37;;;;;;;;;;;14.00;57.80;;;;;;5047717;28;19913;-56
2022/03/29 05:28:02;;;;;;;;;;;14.00;58.90;;;;;;5046860;28;20316;-56
2022/03/29 05:30:28;;;;;;;;;;;13.90;58.50;;;;;;5047521;28;19928;-55
2022/03/29 05:33:00;;;;;;;;;;;13.90;59.00;;;;;;5048325;28;19917;-55
2022/03/29 05:35:29;;;;;;;;;;;13.90;58.50;;;;;;5050373;28;19924;-56
2022/03/29 05:37:57;;;;;;;;;;;13.90;58.40;;;;;;5050510;28;19915;-57
2022/03/29 05:40:22;;;;;;;;;;;13.90;59.40;;;;;;5047385;28;19920;-54
2022/03/29 05:42:48;;;;;;;;;;;13.90;58.80;;;;;;5048176;28;20293;-57
2022/03/29 05:45:13;;;;;;;;;;;13.90;58.70;;;;;;5047745;28;19956;-51
2022/03/29 05:50:24;;;;;;;;;;;14.00;58.60;;;;;;5047575;28;20312;-57
2022/03/29 05:52:49;;;;;;;;;;;13.90;58.60;;;;;;5048606;28;19917;-57
2022/03/29 05:55:15;;;;;;;;;;;13.90;58.40;;;;;;5047325;28;20297;-56
2022/03/29 05:57:41;;;;;;;;;;;13.90;58.80;;;;;;5047553;28;19913;-57
2022/03/29 06:00:09;;;;;;;;;;;13.90;58.60;;;;;;5047756;28;19992;-56
2022/03/29 06:02:35;;;;;;;;;;;13.90;58.80;;;;;;5049822;28;20358;-56
2022/03/29 06:05:01;;;;;;;;;;;13.90;59.00;;;;;;5049027;28;19924;-54
2022/03/29 06:07:26;;;;;;;;;;;13.90;59.20;;;;;;5047282;28;19909;-56
2022/03/29 06:09:52;;;;;;;;;;;14.00;59.20;;;;;;5047350;28;19921;-57
2022/03/29 06:12:24;;;;;;;;;;;14.00;59.20;;;;;;5046925;28;19992;-55
2022/03/29 06:14:50;;;;;;;;;;;14.00;59.80;;;;;;5031259;28;19916;-55
2022/03/29 06:17:16;;;;;;;;;;;14.00;59.30;;;;;;5050198;28;19916;-56
2022/03/29 06:19:42;;;;;;;;;;;14.10;59.10;;;;;;5047018;28;20003;-56
2022/03/29 06:22:07;;;;;;;;;;;14.10;59.50;;;;;;5046622;28;19913;-56
2022/03/29 06:24:33;;;;;;;;;;;14.10;59.50;;;;;;5045882;28;19916;-55
2022/03/29 06:26:58;;;;;;;;;;;14.00;59.40;;;;;;5029697;28;19913;-56
2022/03/29 06:29:24;;;;;;;;;;;14.00;59.70;;;;;;5049388;28;20689;-56
2022/03/29 06:31:51;;;;;;;;;;;14.00;59.60;;;;;;5047338;28;19931;-56
2022/03/29 06:34:16;;;;;;;;;;;14.10;59.40;;;;;;5047168;28;20400;-57
2022/03/29 06:36:42;;;;;;;;;;;14.10;59.30;;;;;;5046653;28;19913;-56
2022/03/29 06:39:10;;;;;;;;;;;14.10;59.10;;;;;;5046309;28;19914;-56
2022/03/29 06:41:36;;;;;;;;;;;14.10;59.50;;;;;;5052748;28;20043;-55
2022/03/29 06:44:01;;;;;;;;;;;14.10;60.30;;;;;;5052259;28;19939;-56
2022/03/29 06:46:27;;;;;;;;;;;14.10;59.80;;;;;;5050407;28;19913;-54
2022/03/29 06:48:54;;;;;;;;;;;14.10;60.40;;;;;;5050326;28;19925;-55
2022/03/29 06:51:19;;;;;;;;;;;14.20;61.60;;;;;;5050372;28;20369;-56
2022/03/29 06:53:45;;;;;;;;;;;14.10;61.10;;;;;;5051083;28;19967;-55
2022/03/29 06:56:11;;;;;;;;;;;14.10;61.70;;;;;;5053061;28;20472;-55
2022/03/29 06:58:37;;;;;;;;;;;14.20;61.80;;;;;;5050434;28;19919;-57
2022/03/29 07:01:03;;;;;;;;;;;14.20;60.90;;;;;;5050210;28;19940;-56
2022/03/29 07:03:29;;;;;;;;;;;14.20;61.00;;;;;;5050346;28;20370;-57
2022/03/29 07:05:55;;;;;;;;;;;14.30;60.50;;;;;;5050070;28;23594;-57
2022/03/29 07:08:22;;;;;;;;;;;14.30;60.80;;;;;;5052951;28;19913;-56
2022/03/29 07:13:32;;;;;;;;;;;14.30;62.00;;;;;;5050160;28;19959;-53
2022/03/29 07:15:58;;;;;;;;;;;14.30;61.10;;;;;;5049829;28;19948;-55
2022/03/29 07:18:23;;;;;;;;;;;14.30;60.20;;;;;;5050332;28;20293;-58
2022/03/29 07:20:49;;;;;;;;;;;14.30;60.10;;;;;;5050092;28;19917;-56
2022/03/29 07:23:14;;;;;;;;;;;14.40;60.50;;;;;;5053479;28;20357;-57
2022/03/29 07:25:40;;;;;;;;;;;14.40;62.20;;;;;;5050191;28;20389;-57
2022/03/29 07:28:11;;;;;;;;;;;14.40;62.40;;;;;;5049697;28;20020;-57
2022/03/29 07:30:38;;;;;;;;;;;14.50;60.80;;;;;;5049793;28;19939;-57
2022/03/29 07:33:03;;;;;;;;;;;14.50;60.40;;;;;;5050639;28;19940;-57
2022/03/29 07:35:29;;;;;;;;;;;14.50;60.20;;;;;;5034402;28;19913;-57
2022/03/29 07:37:55;;;;;;;;;;;14.60;60.70;;;;;;5051160;28;20561;-56
2022/03/29 07:40:22;;;;;;;;;;;14.60;60.60;;;;;;5049596;28;19919;-57
2022/03/29 07:42:49;;;;;;;;;;;14.60;60.70;;;;;;5050156;28;20004;-57
2022/03/29 07:45:16;;;;;;;;;;;14.60;61.10;;;;;;5049431;28;19959;-56
2022/03/29 07:47:42;;;;;;;;;;;14.60;61.90;;;;;;5050720;28;20011;-56
2022/03/29 07:50:08;;;;;;;;;;;14.70;63.70;;;;;;5048651;28;19917;-53
2022/03/29 07:52:34;;;;;;;;;;;14.80;63.10;;;;;;5050537;28;19917;-53
2022/03/29 07:54:59;;;;;;;;;;;14.80;61.40;;;;;;5047997;28;20184;-56
2022/03/29 07:57:25;;;;;;;;;;;14.80;61.30;;;;;;5048743;28;19996;-57
2022/03/29 07:59:50;;;;;;;;;;;14.90;61.10;;;;;;5049720;28;19917;-71
2022/03/29 08:02:16;;;;;;;;;;;14.90;60.60;;;;;;5052701;28;20296;-71
2022/03/29 08:04:41;;;;;;;;;;;15.00;60.70;;;;;;5050428;28;19920;-72
2022/03/29 08:07:08;;;;;;;;;;;15.00;61.40;;;;;;5049462;28;20011;-74
2022/03/29 08:09:34;;;;;;;;;;;15.10;60.30;;;;;;5050819;28;19931;-73
2022/03/29 08:12:00;;;;;;;;;;;15.10;60.10;;;;;;5049334;28;20325;-74
2022/03/29 08:14:25;;;;;;;;;;;15.10;59.90;;;;;;5051728;28;19912;-72
2022/03/29 08:16:53;;;;;;;;;;;15.20;59.60;;;;;;5049413;28;19920;-72
2022/03/29 08:19:19;;;;;;;;;;;15.20;58.90;;;;;;5047467;28;19945;-73
2022/03/29 08:21:50;;;;;;;;;;;15.20;59.00;;;;;;5048584;28;20712;-72
2022/03/29 08:24:21;;;;;;;;;;;15.30;58.70;;;;;;5050710;28;19944;-73
2022/03/29 08:26:48;;;;;;;;;;;15.30;58.60;;;;;;5049828;28;20397;-75
2022/03/29 08:29:16;;;;;;;;;;;15.40;58.50;;;;;;5051625;28;19917;-74
2022/03/29 08:31:47;;;;;;;;;;;15.50;58.20;;;;;;5048568;28;19921;-71
2022/03/29 08:34:13;;;;;;;;;;;15.60;58.40;;;;;;5048619;28;20019;-72
2022/03/29 08:36:38;;;;;;;;;;;15.60;58.00;;;;;;5048542;28;20043;-71
2022/03/29 08:39:05;;;;;;;;;;;15.70;58.50;;;;;;5041489;28;20339;-71
2022/03/29 08:41:34;;;;;;;;;;;15.80;58.10;;;;;;5044528;28;19917;-71
2022/03/29 08:44:00;;;;;;;;;;;15.80;57.50;;;;;;5044813;28;19920;-70
2022/03/29 08:46:30;;;;;;;;;;;15.80;57.80;;;;;;5046054;28;19917;-71
2022/03/29 08:48:56;;;;;;;;;;;15.90;57.70;;;;;;5025275;28;20548;-73
2022/03/29 08:51:22;;;;;;;;;;;16.00;57.60;;;;;;5042814;28;19913;-72
2022/03/29 08:53:49;;;;;;;;;;;16.00;57.30;;;;;;5041145;28;20709;-72
2022/03/29 08:56:14;;;;;;;;;;;16.10;56.70;;;;;;5047672;28;19913;-72
2022/03/29 08:58:40;;;;;;;;;;;16.10;56.90;;;;;;5045438;28;19937;-72
2022/03/29 09:01:05;;;;;;;;;;;16.20;57.30;;;;;;5044083;28;20400;-73
2022/03/29 09:03:31;;;;;;;;;;;16.30;56.70;;;;;;5041767;28;19917;-73
2022/03/29 09:06:07;;;;;;;;;;;16.30;56.80;;;;;;5046307;28;19921;-72
2022/03/29 09:08:45;;;;;;;;;;;16.40;56.80;;;;;;5028399;28;19979;-72
2022/03/29 09:11:12;;;;;;;;;;;16.60;57.10;;;;;;5042978;28;19913;-72
2022/03/29 09:13:39;;;;;;;;;;;16.70;57.10;;;;;;5043395;28;19971;-71
2022/03/29 09:16:07;;;;;;;;;;;16.70;56.80;;;;;;5042583;28;20443;-72
2022/03/29 09:18:32;;;;;;;;;;;16.80;56.80;;;;;;5040714;28;20399;-72
2022/03/29 09:21:15;;;;;;;;;;;16.80;55.70;;;;;;5042468;28;19959;-71
2022/03/29 09:23:41;;;;;;;;;;;16.80;56.10;;;;;;5045738;28;19939;-73
2022/03/29 09:26:07;;;;;;;;;;;16.90;56.50;;;;;;5047317;28;19952;-72
2022/03/29 09:28:33;;;;;;;;;;;16.90;55.80;;;;;;5044675;28;19964;-72
2022/03/29 09:30:59;;;;;;;;;;;16.90;56.20;;;;;;5041979;28;19925;-70
2022/03/29 09:33:29;;;;;;;;;;;16.90;56.20;;;;;;5040138;28;20714;-71
2022/03/29 09:35:56;;;;;;;;;;;16.90;56.10;;;;;;5042754;28;20266;-72
2022/03/29 09:38:24;;;;;;;;;;;16.90;56.50;;;;;;5041983;28;20291;-72
2022/03/29 09:40:50;;;;;;;;;;;17.00;56.30;;;;;;5044675;28;19925;-71
2022/03/29 09:43:15;;;;;;;;;;;17.00;56.40;;;;;;5042838;28;20273;-72
2022/03/29 09:45:45;;;;;;;;;;;17.00;56.20;;;;;;5041665;28;19999;-73
2022/03/29 09:48:37;;;;;;;;;;;17.10;56.00;;;;;;5044561;28;20397;-71
2022/03/29 09:51:09;;;;;;;;;;;17.10;55.80;;;;;;5036212;28;19931;-72
2022/03/29 09:53:37;;;;;;;;;;;17.10;55.80;;;;;;5040742;28;20011;-72
2022/03/29 09:56:03;;;;;;;;;;;17.20;56.20;;;;;;5041884;28;19952;-72
2022/03/29 09:58:28;;;;;;;;;;;17.20;55.80;;;;;;5044552;28;20153;-74
2022/03/29 10:00:55;;;;;;;;;;;17.30;55.90;;;;;;5041232;28;19920;-71
2022/03/29 10:03:23;;;;;;;;;;;17.30;55.70;;;;;;5040332;28;20220;-72
2022/03/29 10:05:49;;;;;;;;;;;17.40;55.80;;;;;;5041790;28;20019;-73
2022/03/29 10:11:01;;;;;;;;;;;17.50;56.10;;;;;;5043802;28;20484;-71
2022/03/29 10:13:28;;;;;;;;;;;17.50;56.50;;;;;;5043506;28;20012;-70
2022/03/29 10:15:55;;;;;;;;;;;17.60;56.90;;;;;;5044725;28;19913;-72
2022/03/29 10:18:23;;;;;;;;;;;17.60;56.30;;;;;;5044136;28;20042;-72
2022/03/29 10:20:49;;;;;;;;;;;17.70;56.90;;;;;;5045729;28;19921;-73
2022/03/29 10:23:14;;;;;;;;;;;17.80;56.50;;;;;;5046473;28;19920;-72
2022/03/29 10:25:41;;;;;;;;;;;17.80;56.60;;;;;;5048951;28;20390;-73
2022/03/29 10:28:07;;;;;;;;;;;17.90;56.40;;;;;;5045875;28;20067;-72
2022/03/29 10:30:34;;;;;;;;;;;17.80;56.90;;;;;;5043954;28;20000;-70
2022/03/29 10:33:18;;;;;;;;;;;17.90;56.60;;;;;;5046266;28;19913;-71
2022/03/29 10:35:59;;;;;;;;;;;17.90;57.50;;;;;;5045207;28;20332;-73
2022/03/29 10:38:43;;;;;;;;;;;18.00;55.80;;;;;;5044399;28;19913;-72
2022/03/29 10:41:26;;;;;;;;;;;17.90;56.10;;;;;;5046516;28;20354;-73
2022/03/29 10:44:14;;;;;;;;;;;18.00;56.80;;;;;;5047357;28;20007;-71
2022/03/29 10:46:43;;;;;;;;;;;18.20;56.50;;;;;;5047588;28;19920;-72
2022/03/29 10:49:20;;;;;;;;;;;18.20;57.00;;;;;;5045362;28;19936;-71
2022/03/29 10:51:46;;;;;;;;;;;18.30;56.00;;;;;;5046538;28;19988;-71
2022/03/29 10:54:27;;;;;;;;;;;18.40;56.60;;;;;;5044643;28;19917;-71
2022/03/29 10:57:16;;;;;;;;;;;18.50;55.90;;;;;;5043491;28;19944;-72
2022/03/29 10:59:41;;;;;;;;;;;18.60;55.40;;;;;;5029672;28;20593;-73
2022/03/29 11:02:07;;;;;;;;;;;18.70;55.80;;;;;;5050104;28;20007;-74
2022/03/29 11:04:33;;;;;;;;;;;18.70;55.80;;;;;;5046960;28;19964;-73
2022/03/29 11:07:05;;;;;;;;;;;18.80;55.80;;;;;;5044242;28;19920;-70
2022/03/29 11:09:30;;;;;;;;;;;18.80;55.50;;;;;;5043156;28;19920;-73
2022/03/29 11:11:56;;;;;;;;;;;18.90;54.60;;;;;;5044329;28;19912;-73
2022/03/29 11:14:32;;;;;;;;;;;18.90;54.80;;;;;;5044533;28;20361;-74
2022/03/29 11:17:00;;;;;;;;;;;18.90;54.60;;;;;;5044529;28;19990;-72
2022/03/29 11:19:39;;;;;;;;;;;18.90;54.40;;;;;;5046099;28;19920;-71
2022/03/29 11:22:23;;;;;;;;;;;18.90;55.00;;;;;;5044228;28;19924;-73
2022/03/29 11:24:51;;;;;;;;;;;19.00;55.10;;;;;;5046020;28;19919;-74
2022/03/29 11:27:21;;;;;;;;;;;19.00;54.30;;;;;;5041706;28;19913;-73
2022/03/29 11:29:46;;;;;;;;;;;19.00;54.20;;;;;;5044253;28;20386;-72
2022/03/29 11:32:13;;;;;;;;;;;18.90;53.50;;;;;;5044811;28;19928;-67
2022/03/29 11:34:40;;;;;;;;;;;18.80;54.60;;;;;;5045277;28;19920;-74
2022/03/29 11:37:06;;;;;;;;;;;18.90;54.00;;;;;;5039659;28;19999;-73
2022/03/29 11:39:32;;;;;;;;;;;19.00;54.70;;;;;;5045189;28;19956;-74
2022/03/29 11:41:58;;;;;;;;;;;19.00;54.20;;;;;;5043108;28;19962;-75
2022/03/29 11:44:24;;;;;;;;;;;19.00;54.00;;;;;;5026019;28;19921;-74
2022/03/29 11:46:54;;;;;;;;;;;19.10;54.40;;;;;;5044193;28;19920;-74
2022/03/29 11:49:22;;;;;;;;;;;19.10;53.30;;;;;;5045050;28;20448;-74
2022/03/29 11:52:06;;;;;;;;;;;19.10;53.70;;;;;;5045752;28;20289;-74
2022/03/29 11:54:37;;;;;;;;;;;19.10;53.60;;;;;;5042210;28;19936;-73
2022/03/29 11:57:12;;;;;;;;;;;19.20;53.60;;;;;;5043336;28;20321;-75
2022/03/29 11:59:38;;;;;;;;;;;19.30;54.00;;;;;;5042806;28;20047;-75
2022/03/29 12:02:04;;;;;;;;;;;19.30;54.50;;;;;;5045500;28;20366;-74
2022/03/29 12:04:32;;;;;;;;;;;19.40;52.80;;;;;;5045438;28;20492;-73
2022/03/29 12:06:57;;;;;;;;;;;19.50;53.10;;;;;;5025849;28;19920;-73
2022/03/29 12:09:23;;;;;;;;;;;19.40;52.50;;;;;;5042603;28;19937;-73
2022/03/29 12:11:49;;;;;;;;;;;19.30;52.50;;;;;;5043428;28;20370;-72
2022/03/29 12:14:15;;;;;;;;;;;19.40;52.80;;;;;;5044247;28;19937;-72
2022/03/29 12:16:42;;;;;;;;;;;19.50;52.80;;;;;;5045981;28;19967;-74
2022/03/29 12:19:07;;;;;;;;;;;19.50;53.50;;;;;;5025781;28;20370;-73
2022/03/29 12:21:33;;;;;;;;;;;19.60;52.80;;;;;;5041642;28;19924;-73
2022/03/29 12:24:00;;;;;;;;;;;19.70;53.10;;;;;;5043418;28;19913;-72
2022/03/29 12:26:26;;;;;;;;;;;19.80;52.50;;;;;;5042640;28;19920;-74
2022/03/29 12:28:51;;;;;;;;;;;19.80;53.10;;;;;;5046199;28;19928;-73
2022/03/29 12:31:18;;;;;;;;;;;19.80;52.10;;;;;;5043977;28;19928;-72
2022/03/29 12:33:45;;;;;;;;;;;19.80;52.80;;;;;;5042865;28;20386;-71
2022/03/29 12:36:12;;;;;;;;;;;19.80;53.00;;;;;;5047082;28;19995;-73
2022/03/29 12:38:58;;;;;;;;;;;19.80;53.10;;;;;;5047020;28;19920;-74
2022/03/29 12:41:38;;;;;;;;;;;19.80;54.20;;;;;;5028213;28;19917;-72
2022/03/29 12:44:05;;;;;;;;;;;19.70;53.90;;;;;;5042955;28;19913;-72
2022/03/29 12:46:31;;;;;;;;;;;19.50;55.60;;;;;;5045155;28;19938;-74
2022/03/29 12:48:56;;;;;;;;;;;19.40;56.80;;;;;;5042922;28;20054;-74
2022/03/29 12:51:27;;;;;;;;;;;19.30;56.80;;;;;;5041651;28;19919;-73
2022/03/29 12:54:00;;;;;;;;;;;19.20;57.20;;;;;;5041703;28;20407;-74
2022/03/29 12:56:27;;;;;;;;;;;19.10;58.10;;;;;;5041412;28;19921;-74
2022/03/29 12:58:52;;;;;;;;;;;18.90;59.00;;;;;;5045034;28;20331;-75
2022/03/29 13:01:25;;;;;;;;;;;18.70;60.10;;;;;;5043855;28;19913;-72
2022/03/29 13:03:50;;;;;;;;;;;18.70;60.40;;;;;;5045775;28;19913;-72
2022/03/29 13:06:15;;;;;;;;;;;18.50;61.30;;;;;;5042333;28;20352;-72
2022/03/29 13:08:41;;;;;;;;;;;18.30;62.30;;;;;;5041298;28;20094;-73
2022/03/29 13:11:20;;;;;;;;;;;18.10;61.70;;;;;;5044103;28;20667;-72
2022/03/29 13:14:00;;;;;;;;;;;18.00;63.00;;;;;;5044455;28;19913;-72
2022/03/29 13:16:28;;;;;;;;;;;18.00;65.00;;;;;;5043905;28;19913;-73
2022/03/29 13:18:53;;;;;;;;;;;17.90;64.20;;;;;;5042298;28;19936;-72
2022/03/29 13:21:28;;;;;;;;;;;17.80;65.00;;;;;;5041498;28;19913;-72
2022/03/29 13:23:54;;;;;;;;;;;17.70;64.40;;;;;;5036768;28;20361;-73
2022/03/29 13:26:21;;;;;;;;;;;17.50;66.60;;;;;;5040883;28;19968;-73
2022/03/29 13:28:47;;;;;;;;;;;17.40;66.60;;;;;;5044945;28;19921;-71
2022/03/29 13:31:16;;;;;;;;;;;17.40;66.90;;;;;;5043106;28;20306;-72
2022/03/29 13:33:43;;;;;;;;;;;17.20;67.40;;;;;;5045080;28;19963;-68
2022/03/29 13:36:09;;;;;;;;;;;17.10;68.30;;;;;;5047895;28;19916;-73
2022/03/29 13:38:36;;;;;;;;;;;17.00;68.60;;;;;;5046878;28;19912;-73
2022/03/29 13:41:02;;;;;;;;;;;17.00;68.50;;;;;;5044229;28;19967;-74
2022/03/29 13:43:28;;;;;;;;;;;16.90;70.50;;;;;;5044432;28;19966;-72
2022/03/29 13:45:53;;;;;;;;;;;16.90;70.50;;;;;;5045727;28;19920;-72
2022/03/29 13:48:19;;;;;;;;;;;16.90;71.60;;;;;;5043983;28;19924;-70
2022/03/29 13:50:44;;;;;;;;;;;16.80;71.00;;;;;;5045952;28;19978;-71
2022/03/29 13:53:10;;;;;;;;;;;16.80;71.90;;;;;;5046028;28;20332;-71
2022/03/29 13:55:36;;;;;;;;;;;16.70;72.70;;;;;;5044431;28;19924;-71
2022/03/29 13:58:04;;;;;;;;;;;16.70;71.10;;;;;;5045106;28;19917;-72
2022/03/29 14:00:30;;;;;;;;;;;16.70;69.80;;;;;;5043614;28;19917;-72
2022/03/29 14:02:56;;;;;;;;;;;16.60;70.70;;;;;;5041843;28;19943;-71
2022/03/29 14:05:21;;;;;;;;;;;16.60;71.40;;;;;;5041883;28;20453;-70
2022/03/29 14:07:47;;;;;;;;;;;16.50;73.90;;;;;;5044072;28;19919;-73
2022/03/29 14:10:14;;;;;;;;;;;16.50;72.10;;;;;;5041781;28;19921;-75
2022/03/29 14:12:40;;;;;;;;;;;16.50;73.30;;;;;;5040573;28;19983;-74
2022/03/29 14:15:05;;;;;;;;;;;16.40;74.50;;;;;;5041588;28;19912;-74
2022/03/29 14:17:31;;;;;;;;;;;16.40;74.10;;;;;;5039801;28;19925;-74
2022/03/29 14:19:57;;;;;;;;;;;16.40;74.20;;;;;;5044811;28;19913;-73
2022/03/29 14:22:22;;;;;;;;;;;16.40;75.50;;;;;;5042386;28;19923;-75
2022/03/29 14:24:48;;;;;;;;;;;16.40;74.60;;;;;;5041750;28;19939;-75
2022/03/29 14:27:14;;;;;;;;;;;16.30;74.30;;;;;;5041064;28;19948;-75